createdAt,value
2018-04-18T00:02:02.146Z,8.40
2018-04-18T00:04:29.609Z,8.30
2018-04-18T00:06:57.079Z,8.30
2018-04-18T00:09:24.537Z,8.20
2018-04-18T00:11:51.998Z,8.20
2018-04-18T00:14:19.466Z,8.20
2018-04-18T00:16:46.928Z,8.20
2018-04-18T00:19:14.389Z,8.20
2018-04-18T00:21:41.861Z,8.00
2018-04-18T00:24:09.432Z,8.00
2018-04-18T00:26:36.984Z,8.00
2018-04-18T00:29:04.450Z,7.90
2018-04-18T00:31:31.982Z,7.70
2018-04-18T00:33:59.533Z,7.60
2018-04-18T00:36:26.999Z,7.50
2018-04-18T00:38:54.460Z,7.50
2018-04-18T00:41:21.919Z,7.70
2018-04-18T00:43:49.401Z,7.80
2018-04-18T00:46:16.861Z,7.90
2018-04-18T00:48:44.350Z,7.80
2018-04-18T00:51:11.823Z,7.60
2018-04-18T00:53:39.311Z,7.70
2018-04-18T00:56:06.779Z,7.90
2018-04-18T00:58:34.245Z,8.00
2018-04-18T01:01:01.706Z,8.10
2018-04-18T01:03:29.172Z,8.10
2018-04-18T01:05:56.651Z,8.00
2018-04-18T01:08:24.113Z,7.90
2018-04-18T01:10:51.629Z,7.90
2018-04-18T01:13:19.090Z,8.00
2018-04-18T01:33:02.947Z,7.60
2018-04-18T01:35:30.456Z,7.50
2018-04-18T01:37:58.006Z,7.80
2018-04-18T01:40:25.462Z,7.70
2018-04-18T02:00:09.481Z,7.10
2018-04-18T02:02:36.987Z,7.10
2018-04-18T02:05:04.445Z,7.10
2018-04-18T02:07:31.915Z,7.00
2018-04-18T02:09:59.398Z,6.90
2018-04-18T02:12:26.851Z,6.80
2018-04-18T02:14:54.315Z,6.80
2018-04-18T02:17:21.790Z,6.70
2018-04-18T02:19:49.242Z,6.70
2018-04-18T02:22:16.714Z,6.90
2018-04-18T02:24:44.202Z,7.00
2018-04-18T02:27:11.661Z,7.00
2018-04-18T02:29:39.124Z,7.00
2018-04-18T02:32:06.583Z,6.90
2018-04-18T02:34:34.055Z,6.80
2018-04-18T02:37:01.514Z,6.90
2018-04-18T02:39:28.978Z,6.90
2018-04-18T02:41:56.497Z,6.90
2018-04-18T02:44:23.956Z,7.00
2018-04-18T02:46:51.504Z,7.00
2018-04-18T02:49:18.978Z,7.00
2018-04-18T02:51:46.433Z,6.80
2018-04-18T02:54:13.901Z,6.60
2018-04-18T02:56:41.356Z,6.50
2018-04-18T02:59:08.854Z,6.30
2018-04-18T03:01:36.425Z,6.30
2018-04-18T03:04:03.890Z,6.20
2018-04-18T03:06:31.338Z,6.10
2018-04-18T03:08:58.813Z,6.00
2018-04-18T03:11:26.338Z,5.90
2018-04-18T03:13:53.794Z,6.00
2018-04-18T03:16:21.333Z,6.10
2018-04-18T03:53:22.126Z,6.40
2018-04-18T04:13:06.854Z,6.20
2018-04-18T04:15:34.328Z,6.20
2018-04-18T04:18:13.607Z,6.10
2018-04-18T04:20:52.926Z,5.90
2018-04-18T04:23:32.025Z,5.80
2018-04-18T04:43:24.074Z,5.60
2018-04-18T05:03:08.944Z,6.00
2018-04-18T05:05:36.472Z,6.00
2018-04-18T05:08:03.997Z,6.00
2018-04-18T05:10:31.596Z,6.00
2018-04-18T05:12:59.100Z,6.20
2018-04-18T05:18:19.568Z,6.50
2018-04-18T05:20:47.023Z,6.80
2018-04-18T05:23:14.470Z,6.90
2018-04-18T05:25:41.928Z,7.00
2018-04-18T05:28:09.403Z,7.00
2018-04-18T05:30:36.852Z,7.10
2018-04-18T05:33:04.308Z,7.20
2018-04-18T05:35:31.841Z,7.30
2018-04-18T05:37:59.303Z,7.40
2018-04-18T05:40:26.757Z,7.50
2018-04-18T05:42:54.213Z,7.50
2018-04-18T05:45:21.665Z,7.60
2018-04-18T05:47:49.136Z,7.60
2018-04-18T05:50:16.602Z,7.80
2018-04-18T05:52:44.060Z,7.80
2018-04-18T05:55:11.536Z,7.80
2018-04-18T05:57:39.034Z,7.80
2018-04-18T06:00:06.476Z,8.00
2018-04-18T06:02:34.022Z,8.10
2018-04-18T06:05:01.577Z,8.30
2018-04-18T06:07:29.027Z,8.30
2018-04-18T06:09:56.488Z,8.40
2018-04-18T06:12:23.951Z,8.50
2018-04-18T06:14:51.523Z,8.70
2018-04-18T06:17:18.987Z,8.80
2018-04-18T06:19:46.442Z,8.90
2018-04-18T06:22:13.954Z,9.00
2018-04-18T06:24:41.404Z,9.10
2018-04-18T06:27:08.942Z,9.20
2018-04-18T06:29:36.404Z,9.30
2018-04-18T06:32:03.864Z,9.50
2018-04-18T06:34:31.309Z,9.70
2018-04-18T06:36:58.768Z,9.90
2018-04-18T06:39:26.288Z,10.00
2018-04-18T06:41:53.747Z,10.20
2018-04-18T06:44:21.243Z,10.30
2018-04-18T06:46:48.699Z,10.50
2018-04-18T06:49:16.171Z,10.60
2018-04-18T06:51:44.388Z,11.00
2018-04-18T06:54:11.850Z,11.00
2018-04-18T06:56:39.315Z,11.20
2018-04-18T06:59:06.798Z,11.40
2018-04-18T07:01:34.256Z,11.60
2018-04-18T07:04:01.719Z,11.80
2018-04-18T07:06:29.269Z,11.90
2018-04-18T07:08:56.741Z,12.20
2018-04-18T07:11:24.283Z,12.30
2018-04-18T07:13:51.748Z,12.40
2018-04-18T07:16:19.259Z,12.60
2018-04-18T07:18:46.728Z,12.80
2018-04-18T07:21:14.214Z,12.90
2018-04-18T07:23:41.675Z,13.20
2018-04-18T07:26:09.143Z,13.50
2018-04-18T07:28:36.644Z,14.20
2018-04-18T07:31:04.100Z,16.00
2018-04-18T07:33:31.616Z,18.10
2018-04-18T07:35:59.088Z,20.00
2018-04-18T07:38:26.536Z,22.50
2018-04-18T07:40:53.995Z,24.30
2018-04-18T07:43:21.455Z,25.60
2018-04-18T07:45:48.922Z,26.20
2018-04-18T07:48:16.395Z,26.50
2018-04-18T07:50:43.942Z,27.60
2018-04-18T07:53:11.411Z,28.40
2018-04-18T07:55:38.876Z,28.50
2018-04-18T07:58:06.425Z,30.20
2018-04-18T08:00:33.967Z,30.90
2018-04-18T08:03:01.516Z,31.90
2018-04-18T08:05:28.967Z,32.30
2018-04-18T08:07:56.427Z,32.90
2018-04-18T08:10:24.024Z,32.40
2018-04-18T08:12:51.488Z,31.60
2018-04-18T08:15:18.954Z,31.00
2018-04-18T08:17:47.183Z,32.70
2018-04-18T08:20:14.638Z,32.70
2018-04-18T08:22:42.092Z,31.60
2018-04-18T08:25:09.639Z,32.60
2018-04-18T08:27:37.155Z,32.00
2018-04-18T08:30:04.621Z,32.60
2018-04-18T08:32:32.154Z,33.70
2018-04-18T08:34:59.623Z,33.00
2018-04-18T08:37:27.083Z,33.60
2018-04-18T08:39:54.551Z,33.10
2018-04-18T08:42:22.004Z,34.30
2018-04-18T08:44:49.472Z,34.00
2018-04-18T08:47:16.931Z,34.70
2018-04-18T08:49:44.398Z,36.20
2018-04-18T08:52:11.935Z,37.40
2018-04-18T08:54:40.165Z,36.40
2018-04-18T08:57:07.634Z,36.40
2018-04-18T08:59:35.104Z,34.90
2018-04-18T09:02:02.575Z,35.40
2018-04-18T09:04:30.035Z,36.00
2018-04-18T09:06:57.499Z,34.40
2018-04-18T09:09:24.964Z,32.60
2018-04-18T09:11:52.456Z,33.40
2018-04-18T09:14:19.920Z,33.80
2018-04-18T09:16:47.401Z,34.10
2018-04-18T09:19:14.854Z,34.90
2018-04-18T09:21:42.304Z,34.40
2018-04-18T09:24:09.764Z,35.70
2018-04-18T09:26:37.216Z,37.30
2018-04-18T09:29:04.684Z,36.70
2018-04-18T09:31:32.139Z,37.80
2018-04-18T09:34:00.037Z,37.10
2018-04-18T09:36:27.497Z,37.80
2018-04-18T09:38:54.962Z,37.00
2018-04-18T09:41:22.477Z,37.10
2018-04-18T09:43:49.945Z,37.40
2018-04-18T09:46:17.421Z,37.50
2018-04-18T09:48:44.880Z,37.30
2018-04-18T09:51:12.330Z,37.30
2018-04-18T09:53:39.798Z,37.40
2018-04-18T09:56:07.266Z,37.10
2018-04-18T09:58:34.758Z,37.20
2018-04-18T10:01:02.226Z,36.30
2018-04-18T10:03:29.676Z,36.30
2018-04-18T10:05:57.207Z,37.70
2018-04-18T10:08:24.767Z,38.20
2018-04-18T10:10:52.220Z,38.80
2018-04-18T10:13:19.771Z,38.90
2018-04-18T10:15:47.232Z,39.10
2018-04-18T10:18:14.715Z,39.30
2018-04-18T10:20:42.195Z,38.80
2018-04-18T10:23:09.655Z,39.40
2018-04-18T10:25:37.122Z,39.10
2018-04-18T10:28:04.589Z,39.10
2018-04-18T10:30:32.160Z,40.20
2018-04-18T10:32:59.627Z,38.60
2018-04-18T10:35:27.148Z,38.00
2018-04-18T10:37:54.609Z,37.70
2018-04-18T10:40:22.230Z,36.90
2018-04-18T10:42:49.690Z,36.70
2018-04-18T10:45:17.160Z,36.80
2018-04-18T10:47:44.621Z,35.90
2018-04-18T10:50:12.079Z,35.20
2018-04-18T10:52:39.548Z,34.80
2018-04-18T10:55:07.020Z,34.50
2018-04-18T10:57:34.590Z,35.70
2018-04-18T11:00:02.069Z,34.50
2018-04-18T11:02:29.539Z,34.70
2018-04-18T11:04:56.991Z,35.50
2018-04-18T11:07:24.465Z,36.00
2018-04-18T11:09:51.915Z,35.20
2018-04-18T11:12:19.385Z,34.20
2018-04-18T11:14:46.857Z,34.40
2018-04-18T11:17:14.319Z,34.30
2018-04-18T11:19:42.551Z,34.50
2018-04-18T11:22:10.017Z,34.50
2018-04-18T11:24:37.533Z,35.60
2018-04-18T11:27:04.992Z,35.60
2018-04-18T11:29:32.448Z,34.10
2018-04-18T11:31:59.942Z,32.90
2018-04-18T11:34:27.444Z,32.00
2018-04-18T11:36:54.964Z,32.60
2018-04-18T11:39:22.442Z,32.20
2018-04-18T11:41:49.925Z,31.90
2018-04-18T11:44:17.390Z,32.00
2018-04-18T11:46:44.889Z,31.90
2018-04-18T11:49:12.520Z,32.10
2018-04-18T11:51:40.045Z,31.90
2018-04-18T11:54:07.503Z,31.40
2018-04-18T11:56:35.729Z,31.40
2018-04-18T11:59:03.195Z,31.30
2018-04-18T12:01:30.657Z,32.30
2018-04-18T12:03:58.112Z,32.00
2018-04-18T12:06:25.571Z,31.00
2018-04-18T12:08:53.096Z,30.90
2018-04-18T12:11:20.553Z,30.60
2018-04-18T12:13:48.012Z,30.40
2018-04-18T12:16:15.472Z,29.90
2018-04-18T12:18:42.937Z,30.30
2018-04-18T12:21:10.401Z,30.70
2018-04-18T12:23:37.866Z,31.20
2018-04-18T12:26:05.335Z,31.00
2018-04-18T12:28:32.791Z,31.00
2018-04-18T12:31:00.250Z,32.00
2018-04-18T12:33:27.703Z,31.80
2018-04-18T12:35:55.158Z,31.40
2018-04-18T12:38:22.689Z,31.50
2018-04-18T12:40:50.174Z,31.80
2018-04-18T12:43:17.743Z,31.80
2018-04-18T12:45:45.198Z,31.50
2018-04-18T12:48:12.663Z,30.80
2018-04-18T12:50:40.183Z,30.40
2018-04-18T12:53:07.878Z,30.70
2018-04-18T12:55:35.359Z,30.80
2018-04-18T12:58:02.830Z,30.90
2018-04-18T13:00:30.348Z,30.90
2018-04-18T13:02:57.867Z,31.00
2018-04-18T13:05:25.462Z,31.10
2018-04-18T13:07:52.944Z,30.50
2018-04-18T13:10:20.405Z,30.70
2018-04-18T13:12:47.911Z,31.00
2018-04-18T13:15:15.425Z,31.60
2018-04-18T13:17:43.037Z,32.30
2018-04-18T13:20:10.533Z,33.00
2018-04-18T13:22:38.003Z,33.40
2018-04-18T13:25:05.582Z,33.60
2018-04-18T13:27:33.205Z,33.30
2018-04-18T13:30:00.775Z,33.50
2018-04-18T13:32:28.324Z,33.00
2018-04-18T13:34:56.129Z,33.40
2018-04-18T13:37:23.735Z,32.50
2018-04-18T14:17:15.366Z,31.10
2018-04-18T14:19:42.856Z,30.80
2018-04-18T14:22:10.735Z,30.80
2018-04-18T14:24:38.298Z,31.10
2018-04-18T14:27:05.983Z,31.20
2018-04-18T14:46:52.737Z,28.70
2018-04-18T14:49:20.965Z,28.50
2018-04-18T15:09:06.197Z,27.80
2018-04-18T15:11:33.725Z,27.40
2018-04-18T15:14:25.056Z,27.50
2018-04-18T15:16:52.665Z,27.50
2018-04-18T15:19:20.206Z,27.50
2018-04-18T15:42:19.228Z,26.50
2018-04-18T15:44:46.764Z,26.70
2018-04-18T16:21:46.372Z,25.70
2018-04-18T16:41:28.924Z,25.40
2018-04-18T16:43:56.415Z,25.30
2018-04-18T16:46:24.214Z,25.30
2018-04-18T16:48:51.696Z,25.20
2018-04-18T17:05:42.419Z,24.40
2018-04-18T17:08:10.678Z,24.20
2018-04-18T17:10:38.182Z,24.10
2018-04-18T17:30:25.003Z,23.50
2018-04-18T17:32:52.519Z,23.30
2018-04-18T17:35:20.028Z,23.20
2018-04-18T17:37:47.527Z,23.00
2018-04-18T17:40:15.068Z,22.90
2018-04-18T17:42:42.628Z,22.80
2018-04-18T17:45:10.155Z,22.70
2018-04-18T17:47:37.627Z,22.50
2018-04-18T18:07:21.793Z,21.10
2018-04-18T18:09:49.254Z,20.90
2018-04-18T18:12:16.779Z,20.70
2018-04-18T18:32:01.804Z,18.60
2018-04-18T18:34:29.300Z,18.40
2018-04-18T18:54:13.929Z,17.10
2018-04-18T19:14:01.034Z,16.00
2018-04-18T19:16:28.535Z,16.00
2018-04-18T19:18:56.015Z,15.80
2018-04-18T19:21:23.510Z,15.60
2018-04-18T19:23:51.167Z,15.50
2018-04-18T19:57:58.099Z,14.00
2018-04-18T20:17:43.319Z,13.30
2018-04-18T20:20:10.793Z,13.20
2018-04-18T20:22:38.301Z,13.30
2018-04-18T20:25:05.787Z,13.30
2018-04-18T20:27:33.312Z,13.20
2018-04-18T20:30:00.866Z,13.20
2018-04-18T20:32:28.331Z,13.20
2018-04-18T20:34:55.913Z,13.10
2018-04-18T20:37:23.393Z,13.00
2018-04-18T20:39:50.871Z,12.80
2018-04-18T20:42:18.383Z,13.00
2018-04-18T20:44:45.998Z,13.10
2018-04-18T20:47:13.556Z,13.10
2018-04-18T20:49:41.028Z,12.90
2018-04-18T20:52:08.583Z,12.90
2018-04-18T20:54:36.055Z,13.00
2018-04-18T21:14:20.461Z,12.30
2018-04-18T21:16:47.936Z,12.20
2018-04-18T21:19:15.455Z,12.10
2018-04-18T21:21:42.978Z,12.20
2018-04-18T21:24:10.459Z,12.10
2018-04-18T21:26:38.056Z,12.10
2018-04-18T21:29:05.495Z,11.90
2018-04-18T21:31:32.977Z,11.80
2018-04-18T21:34:01.190Z,11.80
2018-04-18T21:53:44.413Z,11.30
2018-04-18T21:56:11.888Z,11.40
2018-04-18T21:58:39.347Z,11.50
2018-04-18T22:01:06.828Z,11.50
2018-04-18T22:03:34.313Z,11.40
2018-04-18T22:06:01.785Z,11.40
2018-04-18T22:08:29.261Z,11.10
2018-04-18T22:10:56.739Z,10.90
2018-04-18T22:13:24.205Z,10.80
2018-04-18T22:15:51.676Z,10.60
2018-04-18T22:18:19.154Z,10.50
2018-04-18T22:20:46.706Z,10.30
2018-04-18T22:23:14.171Z,10.20
2018-04-18T22:25:41.647Z,10.20
2018-04-18T22:28:09.128Z,10.10
2018-04-18T22:30:36.606Z,10.00
2018-04-18T22:33:04.105Z,9.90
2018-04-18T22:35:31.584Z,10.00
2018-04-18T22:37:59.059Z,10.00
2018-04-18T22:40:27.289Z,10.00
2018-04-18T22:42:54.754Z,10.00
2018-04-18T22:45:22.214Z,10.10
2018-04-18T22:47:49.677Z,10.10
2018-04-18T22:50:17.241Z,10.10
2018-04-18T22:52:45.495Z,9.90
2018-04-18T22:55:12.952Z,9.90
2018-04-18T22:57:40.413Z,9.90
2018-04-18T23:00:08.636Z,9.80
2018-04-18T23:02:36.092Z,9.80
2018-04-18T23:05:04.347Z,9.70
2018-04-18T23:07:31.825Z,9.70
2018-04-18T23:09:59.311Z,9.60
2018-04-18T23:12:26.766Z,9.60
2018-04-18T23:14:54.225Z,9.60
2018-04-18T23:17:22.473Z,9.60
2018-04-18T23:19:49.932Z,9.60
2018-04-18T23:22:29.234Z,9.60
2018-04-18T23:24:56.688Z,9.60
2018-04-18T23:27:24.180Z,9.50
2018-04-18T23:29:51.673Z,9.50
2018-04-18T23:32:19.136Z,9.70
2018-04-18T23:34:46.597Z,9.50
2018-04-18T23:37:14.056Z,9.30
2018-04-18T23:39:41.513Z,9.50
2018-04-18T23:42:10.526Z,9.30
2018-04-18T23:44:38.018Z,9.30
2018-04-18T23:47:05.467Z,9.30
2018-04-18T23:49:32.977Z,9.30
2018-04-18T23:52:00.456Z,9.30
2018-04-18T23:54:27.925Z,9.30
2018-04-18T23:56:55.525Z,9.10
2018-04-18T23:59:23.010Z,9.00
